<?xml version="1.0" encoding="utf-8"?>
<gpx xmlns:xsi="http://www.w3.org/2001/XMLSchema-instance" xmlns:xsd="http://www.w3.org/2001/XMLSchema" version="1.1" creator="Shapelink.com" xmlns="http://www.topografix.com/GPX/1/1" xmlns:gpxtpx="http://www.garmin.com/xmlschemas/TrackPointExtension/v1">
  <metadata>
    <name>Övrigt 1.85 km, 2020-08-03</name>
    <desc></desc>
    <author><name>Marian Moron</name></author> 
    <time>2020-08-03T20:49:04Z</time>
  </metadata>
  <trk>
    <name>Övrigt 1.85 km, 2020-08-03</name>
    <trkseg>
      <trkpt lat="51.230119910211" lon="4.459005006018">
        <ele>11</ele>
        <time>2020-08-03T20:49:04Z</time>
      </trkpt>
      <trkpt lat="51.230159221322" lon="4.459016908316">
        <ele>13.6</ele>
        <time>2020-08-03T20:49:20Z</time>
      </trkpt>
      <trkpt lat="51.230431633072" lon="4.458950439849">
        <ele>12.6</ele>
        <time>2020-08-03T20:50:09Z</time>
      </trkpt>
      <trkpt lat="51.230454599478" lon="4.458979022128">
        <ele>12.6</ele>
        <time>2020-08-03T20:50:11Z</time>
      </trkpt>
      <trkpt lat="51.230552080975" lon="4.459202064487">
        <ele>11.6</ele>
        <time>2020-08-03T20:50:35Z</time>
      </trkpt>
      <trkpt lat="51.230573873915" lon="4.459328966453">
        <ele>11.6</ele>
        <time>2020-08-03T20:50:44Z</time>
      </trkpt>
      <trkpt lat="51.230615699596" lon="4.459798101396">
        <ele>10.2</ele>
        <time>2020-08-03T20:51:29Z</time>
      </trkpt>
      <trkpt lat="51.230648724282" lon="4.460111416818">
        <ele>9.2</ele>
        <time>2020-08-03T20:52:49Z</time>
      </trkpt>
      <trkpt lat="51.23061033518" lon="4.460722624966">
        <ele>0</ele>
        <time>2020-08-03T20:54:11Z</time>
      </trkpt>
      <trkpt lat="51.230528276379" lon="4.460782387913">
        <ele>0</ele>
        <time>2020-08-03T20:54:27Z</time>
      </trkpt>
      <trkpt lat="51.230254691163" lon="4.460878360668">
        <ele>0</ele>
        <time>2020-08-03T20:55:06Z</time>
      </trkpt>
      <trkpt lat="51.22981405468" lon="4.461005178815">
        <ele>0</ele>
        <time>2020-08-03T20:55:44Z</time>
      </trkpt>
      <trkpt lat="51.229681117746" lon="4.461042645908">
        <ele>0</ele>
        <time>2020-08-03T20:55:57Z</time>
      </trkpt>
      <trkpt lat="51.229659576263" lon="4.46117155953">
        <ele>0</ele>
        <time>2020-08-03T20:56:33Z</time>
      </trkpt>
      <trkpt lat="51.229768876239" lon="4.461279350764">
        <ele>0</ele>
        <time>2020-08-03T20:56:51Z</time>
      </trkpt>
      <trkpt lat="51.229795698319" lon="4.461324696843">
        <ele>0</ele>
        <time>2020-08-03T20:56:55Z</time>
      </trkpt>
      <trkpt lat="51.229973394599" lon="4.461879494804">
        <ele>1.6</ele>
        <time>2020-08-03T20:57:31Z</time>
      </trkpt>
      <trkpt lat="51.230085209145" lon="4.462119720058">
        <ele>3.6</ele>
        <time>2020-08-03T20:57:59Z</time>
      </trkpt>
      <trkpt lat="51.230101386212" lon="4.462366315556">
        <ele>1.4</ele>
        <time>2020-08-03T20:58:27Z</time>
      </trkpt>
      <trkpt lat="51.230130136129" lon="4.462443512855">
        <ele>0</ele>
        <time>2020-08-03T20:58:32Z</time>
      </trkpt>
      <trkpt lat="51.230191743094" lon="4.462688264335">
        <ele>0</ele>
        <time>2020-08-03T20:58:48Z</time>
      </trkpt>
      <trkpt lat="51.230243962331" lon="4.462842826571">
        <ele>0</ele>
        <time>2020-08-03T20:59:14Z</time>
      </trkpt>
      <trkpt lat="51.230376983084" lon="4.46330056213">
        <ele>0</ele>
        <time>2020-08-03T20:59:51Z</time>
      </trkpt>
      <trkpt lat="51.230362733854" lon="4.463339035051">
        <ele>0</ele>
        <time>2020-08-03T20:59:53Z</time>
      </trkpt>
      <trkpt lat="51.230396680549" lon="4.463450849597">
        <ele>1.6</ele>
        <time>2020-08-03T21:00:05Z</time>
      </trkpt>
      <trkpt lat="51.230490306372" lon="4.463818144455">
        <ele>0.4</ele>
        <time>2020-08-03T21:00:25Z</time>
      </trkpt>
      <trkpt lat="51.23010909756" lon="4.464113187335">
        <ele>0</ele>
        <time>2020-08-03T21:02:05Z</time>
      </trkpt>
      <trkpt lat="51.229881361337" lon="4.464330865278">
        <ele>0</ele>
        <time>2020-08-03T21:02:54Z</time>
      </trkpt>
      <trkpt lat="51.22981908382" lon="4.46429884642">
        <ele>0.6</ele>
        <time>2020-08-03T21:03:02Z</time>
      </trkpt>
      <trkpt lat="51.229580367308" lon="4.464281495887">
        <ele>8.4</ele>
        <time>2020-08-03T21:03:31Z</time>
      </trkpt>
      <trkpt lat="51.229385907228" lon="4.464334637133">
        <ele>8.8</ele>
        <time>2020-08-03T21:03:52Z</time>
      </trkpt>
      <trkpt lat="51.229286078799" lon="4.464335223866">
        <ele>12</ele>
        <time>2020-08-03T21:04:05Z</time>
      </trkpt>
      <trkpt lat="51.228980726182" lon="4.464437902141">
        <ele>12.4</ele>
        <time>2020-08-03T21:04:37Z</time>
      </trkpt>
      <trkpt lat="51.228951138075" lon="4.464460114176">
        <ele>7.8</ele>
        <time>2020-08-03T21:04:43Z</time>
      </trkpt>
      <trkpt lat="51.228893051508" lon="4.464460700909">
        <ele>6.2</ele>
        <time>2020-08-03T21:04:52Z</time>
      </trkpt>
      <trkpt lat="51.228695406306" lon="4.464682402164">
        <ele>0</ele>
        <time>2020-08-03T21:05:55Z</time>
      </trkpt>
      <trkpt lat="51.228736226159" lon="4.465149441632">
        <ele>2.6</ele>
        <time>2020-08-03T21:06:32Z</time>
      </trkpt>
      <trkpt lat="51.228681240895" lon="4.465563591311">
        <ele>4</ele>
        <time>2020-08-03T21:07:03Z</time>
      </trkpt>
      <trkpt lat="51.22851234561" lon="4.465887970841">
        <ele>0</ele>
        <time>2020-08-03T21:07:48Z</time>
      </trkpt>
      <trkpt lat="51.228303971576" lon="4.466094836133">
        <ele>0</ele>
        <time>2020-08-03T21:08:26Z</time>
      </trkpt>
      <trkpt lat="51.228232893064" lon="4.466178236038">
        <ele>0</ele>
        <time>2020-08-03T21:08:36Z</time>
      </trkpt>
      <trkpt lat="51.227871214079" lon="4.466189635422">
        <ele>0</ele>
        <time>2020-08-03T21:09:18Z</time>
      </trkpt>
      <trkpt lat="51.22783173533" lon="4.466104475318">
        <ele>0</ele>
        <time>2020-08-03T21:09:25Z</time>
      </trkpt>
      <trkpt lat="51.227831400054" lon="4.465918397138">
        <ele>0</ele>
        <time>2020-08-03T21:09:35Z</time>
      </trkpt>
      <trkpt lat="51.227847744759" lon="4.465732905691">
        <ele>0</ele>
        <time>2020-08-03T21:09:47Z</time>
      </trkpt>
      <trkpt lat="51.227861155799" lon="4.465637938764">
        <ele>0</ele>
        <time>2020-08-03T21:09:53Z</time>
      </trkpt>
      <trkpt lat="51.227878171056" lon="4.465609607942">
        <ele>0.6</ele>
        <time>2020-08-03T21:09:55Z</time>
      </trkpt>
      <trkpt lat="51.227858976505" lon="4.465151369469">
        <ele>7.2</ele>
        <time>2020-08-03T21:10:57Z</time>
      </trkpt>
      <trkpt lat="51.227860401428" lon="4.465007284608">
        <ele>8.4</ele>
        <time>2020-08-03T21:11:12Z</time>
      </trkpt>
      <trkpt lat="51.227789658192" lon="4.464779380747">
        <ele>0.2</ele>
        <time>2020-08-03T21:11:43Z</time>
      </trkpt>
      <trkpt lat="51.227779013179" lon="4.464613838222">
        <ele>0</ele>
        <time>2020-08-03T21:11:55Z</time>
      </trkpt>
      <trkpt lat="51.227799297377" lon="4.463912776106">
        <ele>0</ele>
        <time>2020-08-03T21:12:42Z</time>
      </trkpt>
      <trkpt lat="51.227755962954" lon="4.463197213303">
        <ele>10.8</ele>
        <time>2020-08-03T21:13:23Z</time>
      </trkpt>
      <trkpt lat="51.227749257434" lon="4.463166032635">
        <ele>10.4</ele>
        <time>2020-08-03T21:13:25Z</time>
      </trkpt>
      <trkpt lat="51.227631491739" lon="4.462865038606">
        <ele>0</ele>
        <time>2020-08-03T21:13:48Z</time>
      </trkpt>
      <trkpt lat="51.227475588399" lon="4.462190295656">
        <ele>0</ele>
        <time>2020-08-03T21:14:28Z</time>
      </trkpt>
      <trkpt lat="51.227439797686" lon="4.461887457609">
        <ele>0</ele>
        <time>2020-08-03T21:14:46Z</time>
      </trkpt>
      <trkpt lat="51.227446670844" lon="4.461682352516">
        <ele>2.8</ele>
        <time>2020-08-03T21:15:02Z</time>
      </trkpt>
      <trkpt lat="51.227428314483" lon="4.461612363651">
        <ele>8.6</ele>
        <time>2020-08-03T21:15:15Z</time>
      </trkpt>
      <trkpt lat="51.22736821626" lon="4.461559725319">
        <ele>9.2</ele>
        <time>2020-08-03T21:15:24Z</time>
      </trkpt>
      <trkpt lat="51.227342902922" lon="4.461391249129">
        <ele>6.6</ele>
        <time>2020-08-03T21:15:45Z</time>
      </trkpt>
      <trkpt lat="51.227340388352" lon="4.46116066306">
        <ele>1</ele>
        <time>2020-08-03T21:16:18Z</time>
      </trkpt>
      <trkpt lat="51.227339801619" lon="4.461042226813">
        <ele>0</ele>
        <time>2020-08-03T21:16:29Z</time>
      </trkpt>
      <trkpt lat="51.227288839667" lon="4.460532439655">
        <ele>0</ele>
        <time>2020-08-03T21:17:12Z</time>
      </trkpt>
      <trkpt lat="51.22729445554" lon="4.460363628189">
        <ele>0</ele>
        <time>2020-08-03T21:17:48Z</time>
      </trkpt>
      <trkpt lat="51.227124638246" lon="4.459705984315">
        <ele>0</ele>
        <time>2020-08-03T21:18:32Z</time>
      </trkpt>
      <trkpt lat="51.227096307424" lon="4.459150348164">
        <ele>0</ele>
        <time>2020-08-03T21:19:14Z</time>
      </trkpt>
      <trkpt lat="51.227496962244" lon="4.458798978916">
        <ele>6</ele>
        <time>2020-08-03T21:19:54Z</time>
      </trkpt>
      <trkpt lat="51.227929216827" lon="4.458598902963">
        <ele>3.4</ele>
        <time>2020-08-03T21:20:33Z</time>
      </trkpt>
      <trkpt lat="51.228324423412" lon="4.458429420945">
        <ele>5.4</ele>
        <time>2020-08-03T21:21:46Z</time>
      </trkpt>
      <trkpt lat="51.228371278233" lon="4.45837619588">
        <ele>7.8</ele>
        <time>2020-08-03T21:21:52Z</time>
      </trkpt>
      <trkpt lat="51.228517542388" lon="4.458277457098">
        <ele>4.4</ele>
        <time>2020-08-03T21:22:06Z</time>
      </trkpt>
      <trkpt lat="51.22896413002" lon="4.458152650607">
        <ele>14.8</ele>
        <time>2020-08-03T21:22:41Z</time>
      </trkpt>
      <trkpt lat="51.229261771289" lon="4.458037148025">
        <ele>14.8</ele>
        <time>2020-08-03T21:23:06Z</time>
      </trkpt>
      <trkpt lat="51.229300663305" lon="4.457999764751">
        <ele>15.8</ele>
        <time>2020-08-03T21:23:11Z</time>
      </trkpt>
      <trkpt lat="51.229340309692" lon="4.45795877726">
        <ele>17.2</ele>
        <time>2020-08-03T21:23:15Z</time>
      </trkpt>
      <trkpt lat="51.229499817249" lon="4.457913347362">
        <ele>19.6</ele>
        <time>2020-08-03T21:23:30Z</time>
      </trkpt>
      <trkpt lat="51.229688661456" lon="4.457920723434">
        <ele>17.2</ele>
        <time>2020-08-03T21:24:12Z</time>
      </trkpt>
    </trkseg>
  </trk>
</gpx>